Biloxi, Mississippi
Current Conditions -  °F | °C
As of 5:58 AM on Monday 20 Oct 2014 (Local Time) from KBIX Reporting Station
Clear Clear  
Wind Chill: 54°   Ceiling: Unl
Heat Index: 54°   Visibility: 10mi
Dew Point: 49°   Wind: 5mph
Humidity: 84%   Direction: 30°NNE
Pressure: 30.04"   Gusts: NA
Location:  30.4°N, 88.97°W
Report Text: KBIX 201058Z AUTO 03004KT 10SM CLR 12/10 A3004 RMK AO2 SLP175 T01220095
Loading
Personal Weather Stations






























Interactive Weather Map
Tropical Storm Tracking
New forecast layout! Learn more

10-Day Weather Forecast

Advertisements
Track Severe Weather on mobile